Galt, Canada
Current Conditions -  °F | °C
As of 9:10 PM on Saturday 22 Nov 2014 (Local Time) from CYKF Reporting Station
Light Rain Light Rain  
Wind Chill: 32°   Ceiling: 600
Heat Index: 39°   Visibility: 2mi
Dew Point: 39°   Wind: 12mph
Humidity: 100%   Direction: 210°SSW
Pressure: 29.92"   Gusts: NA
Location:  43.35°N, 80.3°W
Report Text: CYKF 230210Z AUTO 21010KT 2SM -RA BR OVC006 04/04 A2992 RMK SLP142
Loading
Personal Weather Stations






























Interactive Weather Map New forecast layout! Learn more

10-Day Weather Forecast

Advertisements
Track Severe Weather on mobile